sensor_id;sensor_type;location;lat;lon;timestamp;temperature;humidity
21722;DHT22;11023;48.274;7.794;2023-02-11T00:00:18;-0.50;99.90
21722;DHT22;11023;48.274;7.794;2023-02-11T00:02:44;-0.50;99.90
21722;DHT22;11023;48.274;7.794;2023-02-11T00:05:10;-0.50;99.90
21722;DHT22;11023;48.274;7.794;2023-02-11T00:07:36;-0.50;99.90
21722;DHT22;11023;48.274;7.794;2023-02-11T00:10:03;-0.60;99.90
21722;DHT22;11023;48.274;7.794;2023-02-11T00:12:33;-0.60;99.90
21722;DHT22;11023;48.274;7.794;2023-02-11T00:15:00;-0.60;99.90
21722;DHT22;11023;48.274;7.794;2023-02-11T00:17:26;-0.70;99.90
21722;DHT22;11023;48.274;7.794;2023-02-11T00:19:53;-0.70;99.90
21722;DHT22;11023;48.274;7.794;2023-02-11T00:22:19;-0.70;99.90
21722;DHT22;11023;48.274;7.794;2023-02-11T00:24:45;-0.70;99.90
21722;DHT22;11023;48.274;7.794;2023-02-11T00:27:10;-0.80;99.90
21722;DHT22;11023;48.274;7.794;2023-02-11T00:29:37;-0.90;99.90
21722;DHT22;11023;48.274;7.794;2023-02-11T00:32:03;-0.90;99.90
21722;DHT22;11023;48.274;7.794;2023-02-11T00:34:30;-0.90;99.90
21722;DHT22;11023;48.274;7.794;2023-02-11T00:36:56;-0.90;99.90
21722;DHT22;11023;48.274;7.794;2023-02-11T00:39:22;-0.90;99.90
21722;DHT22;11023;48.274;7.794;2023-02-11T00:41:47;-0.90;99.90
21722;DHT22;11023;48.274;7.794;2023-02-11T00:44:13;-1.00;99.90
21722;DHT22;11023;48.274;7.794;2023-02-11T00:46:39;-1.00;99.90
21722;DHT22;11023;48.274;7.794;2023-02-11T00:49:05;-1.00;99.90
21722;DHT22;11023;48.274;7.794;2023-02-11T00:51:30;-1.00;99.90
21722;DHT22;11023;48.274;7.794;2023-02-11T00:53:56;-1.00;99.90
21722;DHT22;11023;48.274;7.794;2023-02-11T00:56:22;-1.00;99.90
21722;DHT22;11023;48.274;7.794;2023-02-11T00:58:47;-1.00;99.90
21722;DHT22;11023;48.274;7.794;2023-02-11T01:01:13;-1.00;99.90
21722;DHT22;11023;48.274;7.794;2023-02-11T01:03:39;-1.10;99.90
21722;DHT22;11023;48.274;7.794;2023-02-11T01:06:07;-1.10;99.90
21722;DHT22;11023;48.274;7.794;2023-02-11T01:08:33;-1.20;99.90
21722;DHT22;11023;48.274;7.794;2023-02-11T01:11:01;-1.20;99.90
21722;DHT22;11023;48.274;7.794;2023-02-11T01:13:28;-1.20;99.90
21722;DHT22;11023;48.274;7.794;2023-02-11T01:15:55;-1.30;99.90
21722;DHT22;11023;48.274;7.794;2023-02-11T01:18:20;-1.30;99.90
21722;DHT22;11023;48.274;7.794;2023-02-11T01:20:46;-1.40;99.90
21722;DHT22;11023;48.274;7.794;2023-02-11T01:23:12;-1.30;99.90
21722;DHT22;11023;48.274;7.794;2023-02-11T01:25:38;-1.40;99.90
21722;DHT22;11023;48.274;7.794;2023-02-11T01:28:04;-1.40;99.90
21722;DHT22;11023;48.274;7.794;2023-02-11T01:30:30;-1.40;99.90
21722;DHT22;11023;48.274;7.794;2023-02-11T01:32:56;-1.50;99.90
21722;DHT22;11023;48.274;7.794;2023-02-11T01:35:21;-1.50;99.90
21722;DHT22;11023;48.274;7.794;2023-02-11T01:37:47;-1.50;99.90
21722;DHT22;11023;48.274;7.794;2023-02-11T01:40:15;-1.60;99.90
21722;DHT22;11023;48.274;7.794;2023-02-11T01:42:42;-1.60;99.90
21722;DHT22;11023;48.274;7.794;2023-02-11T01:48:04;-1.60;99.90
21722;DHT22;11023;48.274;7.794;2023-02-11T01:50:30;-1.60;99.90
21722;DHT22;11023;48.274;7.794;2023-02-11T01:52:56;-1.60;99.90
21722;DHT22;11023;48.274;7.794;2023-02-11T01:55:42;-1.50;99.90
21722;DHT22;11023;48.274;7.794;2023-02-11T01:58:29;-1.50;99.90
21722;DHT22;11023;48.274;7.794;2023-02-11T02:00:57;-1.50;99.90
21722;DHT22;11023;48.274;7.794;2023-02-11T02:03:24;-1.50;99.90
21722;DHT22;11023;48.274;7.794;2023-02-11T02:08:29;-1.50;99.90
21722;DHT22;11023;48.274;7.794;2023-02-11T02:10:56;-1.50;99.90
21722;DHT22;11023;48.274;7.794;2023-02-11T02:13:26;-1.50;99.90
21722;DHT22;11023;48.274;7.794;2023-02-11T02:16:01;-1.60;99.90
21722;DHT22;11023;48.274;7.794;2023-02-11T02:30:00;-1.50;99.90
21722;DHT22;11023;48.274;7.794;2023-02-11T02:37:50;-1.50;99.90
21722;DHT22;11023;48.274;7.794;2023-02-11T02:40:24;-1.40;99.90
21722;DHT22;11023;48.274;7.794;2023-02-11T02:42:52;-1.40;99.90
21722;DHT22;11023;48.274;7.794;2023-02-11T02:45:18;-1.40;99.90
21722;DHT22;11023;48.274;7.794;2023-02-11T02:47:44;-1.40;99.90
21722;DHT22;11023;48.274;7.794;2023-02-11T02:50:12;-1.40;99.90
21722;DHT22;11023;48.274;7.794;2023-02-11T02:52:55;-1.40;99.90
21722;DHT22;11023;48.274;7.794;2023-02-11T03:00:48;-1.40;99.90
21722;DHT22;11023;48.274;7.794;2023-02-11T03:03:38;-1.40;99.90
21722;DHT22;11023;48.274;7.794;2023-02-11T03:09:30;-1.50;99.90
21722;DHT22;11023;48.274;7.794;2023-02-11T03:11:58;-1.50;99.90
21722;DHT22;11023;48.274;7.794;2023-02-11T03:14:26;-1.50;99.90
21722;DHT22;11023;48.274;7.794;2023-02-11T03:16:53;-1.50;99.90
21722;DHT22;11023;48.274;7.794;2023-02-11T03:19:25;-1.50;99.90
21722;DHT22;11023;48.274;7.794;2023-02-11T03:21:52;-1.50;99.90
21722;DHT22;11023;48.274;7.794;2023-02-11T03:24:38;-1.50;99.90
21722;DHT22;11023;48.274;7.794;2023-02-11T03:27:09;-1.60;99.90
21722;DHT22;11023;48.274;7.794;2023-02-11T03:29:50;-1.60;99.90
21722;DHT22;11023;48.274;7.794;2023-02-11T03:33:00;-1.50;99.90
21722;DHT22;11023;48.274;7.794;2023-02-11T03:35:32;-1.50;99.90
21722;DHT22;11023;48.274;7.794;2023-02-11T03:38:04;-1.60;99.90
21722;DHT22;11023;48.274;7.794;2023-02-11T03:40:35;-1.50;99.90
21722;DHT22;11023;48.274;7.794;2023-02-11T03:45:36;-1.50;99.90
21722;DHT22;11023;48.274;7.794;2023-02-11T03:48:15;-1.60;99.90
21722;DHT22;11023;48.274;7.794;2023-02-11T03:50:44;-1.70;99.90
21722;DHT22;11023;48.274;7.794;2023-02-11T03:53:12;-1.70;99.90
21722;DHT22;11023;48.274;7.794;2023-02-11T03:55:39;-1.80;99.90
21722;DHT22;11023;48.274;7.794;2023-02-11T03:58:07;-1.80;99.90
21722;DHT22;11023;48.274;7.794;2023-02-11T04:00:38;-1.70;99.90
21722;DHT22;11023;48.274;7.794;2023-02-11T04:03:05;-1.70;99.90
21722;DHT22;11023;48.274;7.794;2023-02-11T04:05:31;-1.70;99.90
21722;DHT22;11023;48.274;7.794;2023-02-11T04:07:57;-1.80;99.90
21722;DHT22;11023;48.274;7.794;2023-02-11T04:10:23;-1.80;99.90
21722;DHT22;11023;48.274;7.794;2023-02-11T04:12:49;-1.80;99.90
21722;DHT22;11023;48.274;7.794;2023-02-11T04:15:14;-1.90;99.90
21722;DHT22;11023;48.274;7.794;2023-02-11T04:17:40;-1.90;99.90
21722;DHT22;11023;48.274;7.794;2023-02-11T04:20:06;-1.90;99.90
21722;DHT22;11023;48.274;7.794;2023-02-11T04:22:32;-1.90;99.90
21722;DHT22;11023;48.274;7.794;2023-02-11T04:24:59;-1.80;99.90
21722;DHT22;11023;48.274;7.794;2023-02-11T04:27:25;-1.70;99.90
21722;DHT22;11023;48.274;7.794;2023-02-11T04:29:52;-1.70;99.90
21722;DHT22;11023;48.274;7.794;2023-02-11T04:32:18;-1.70;99.90
21722;DHT22;11023;48.274;7.794;2023-02-11T04:34:44;-1.80;99.90
21722;DHT22;11023;48.274;7.794;2023-02-11T04:37:10;-1.80;99.90
21722;DHT22;11023;48.274;7.794;2023-02-11T04:39:37;-1.90;99.90
21722;DHT22;11023;48.274;7.794;2023-02-11T04:42:03;-1.90;99.90
21722;DHT22;11023;48.274;7.794;2023-02-11T04:44:29;-1.90;99.90
21722;DHT22;11023;48.274;7.794;2023-02-11T04:46:54;-1.90;99.90
21722;DHT22;11023;48.274;7.794;2023-02-11T04:49:22;-2.00;99.90
21722;DHT22;11023;48.274;7.794;2023-02-11T04:51:47;-2.00;99.90
21722;DHT22;11023;48.274;7.794;2023-02-11T04:54:13;-2.00;99.90
21722;DHT22;11023;48.274;7.794;2023-02-11T04:56:39;-2.00;99.90
21722;DHT22;11023;48.274;7.794;2023-02-11T04:59:05;-2.00;99.90
21722;DHT22;11023;48.274;7.794;2023-02-11T05:01:30;-2.00;99.90
21722;DHT22;11023;48.274;7.794;2023-02-11T05:03:56;-2.00;99.90
21722;DHT22;11023;48.274;7.794;2023-02-11T05:06:22;-1.90;99.90
21722;DHT22;11023;48.274;7.794;2023-02-11T05:08:48;-1.90;99.90
21722;DHT22;11023;48.274;7.794;2023-02-11T05:11:17;-1.70;99.90
21722;DHT22;11023;48.274;7.794;2023-02-11T05:13:43;-1.70;99.90
21722;DHT22;11023;48.274;7.794;2023-02-11T05:16:09;-1.60;99.90
21722;DHT22;11023;48.274;7.794;2023-02-11T05:18:42;-1.60;99.90
21722;DHT22;11023;48.274;7.794;2023-02-11T05:21:10;-1.50;99.90
21722;DHT22;11023;48.274;7.794;2023-02-11T05:23:36;-1.40;99.90
21722;DHT22;11023;48.274;7.794;2023-02-11T05:26:03;-1.40;99.90
21722;DHT22;11023;48.274;7.794;2023-02-11T05:28:28;-1.40;99.90
21722;DHT22;11023;48.274;7.794;2023-02-11T05:30:55;-1.50;99.90
21722;DHT22;11023;48.274;7.794;2023-02-11T05:33:21;-1.50;99.90
21722;DHT22;11023;48.274;7.794;2023-02-11T05:35:47;-1.50;99.90
21722;DHT22;11023;48.274;7.794;2023-02-11T05:38:13;-1.50;99.90
21722;DHT22;11023;48.274;7.794;2023-02-11T05:40:39;-1.50;99.90
21722;DHT22;11023;48.274;7.794;2023-02-11T05:43:06;-1.50;99.90
21722;DHT22;11023;48.274;7.794;2023-02-11T05:45:32;-1.50;99.90
21722;DHT22;11023;48.274;7.794;2023-02-11T05:48:00;-1.50;99.90
21722;DHT22;11023;48.274;7.794;2023-02-11T05:50:26;-1.50;99.90
21722;DHT22;11023;48.274;7.794;2023-02-11T05:52:52;-1.50;99.90
21722;DHT22;11023;48.274;7.794;2023-02-11T05:55:18;-1.50;99.90
21722;DHT22;11023;48.274;7.794;2023-02-11T05:57:45;-1.50;99.90
21722;DHT22;11023;48.274;7.794;2023-02-11T06:00:11;-1.50;99.90
21722;DHT22;11023;48.274;7.794;2023-02-11T06:02:37;-1.50;99.90
21722;DHT22;11023;48.274;7.794;2023-02-11T06:05:03;-1.50;99.90
21722;DHT22;11023;48.274;7.794;2023-02-11T06:07:29;-1.50;99.90
21722;DHT22;11023;48.274;7.794;2023-02-11T06:09:55;-1.40;99.90
21722;DHT22;11023;48.274;7.794;2023-02-11T06:12:21;-1.50;99.90
21722;DHT22;11023;48.274;7.794;2023-02-11T06:14:46;-1.50;99.90
21722;DHT22;11023;48.274;7.794;2023-02-11T06:17:12;-1.50;99.90
21722;DHT22;11023;48.274;7.794;2023-02-11T06:19:38;-1.50;99.90
21722;DHT22;11023;48.274;7.794;2023-02-11T06:22:04;-1.50;99.90
21722;DHT22;11023;48.274;7.794;2023-02-11T06:24:29;-1.60;99.90
21722;DHT22;11023;48.274;7.794;2023-02-11T06:26:55;-1.60;99.90
21722;DHT22;11023;48.274;7.794;2023-02-11T06:29:21;-1.60;99.90
21722;DHT22;11023;48.274;7.794;2023-02-11T06:31:46;-1.60;99.90
21722;DHT22;11023;48.274;7.794;2023-02-11T06:34:12;-1.60;99.90
21722;DHT22;11023;48.274;7.794;2023-02-11T06:36:39;-1.50;99.90
21722;DHT22;11023;48.274;7.794;2023-02-11T06:39:05;-1.50;99.90
21722;DHT22;11023;48.274;7.794;2023-02-11T06:41:31;-1.60;99.90
21722;DHT22;11023;48.274;7.794;2023-02-11T06:43:58;-1.60;99.90
21722;DHT22;11023;48.274;7.794;2023-02-11T06:46:24;-1.60;99.90
21722;DHT22;11023;48.274;7.794;2023-02-11T06:48:49;-1.50;99.90
21722;DHT22;11023;48.274;7.794;2023-02-11T06:51:15;-1.50;99.90
21722;DHT22;11023;48.274;7.794;2023-02-11T06:53:44;-1.40;99.90
21722;DHT22;11023;48.274;7.794;2023-02-11T06:56:13;-1.40;99.90
21722;DHT22;11023;48.274;7.794;2023-02-11T06:58:40;-1.30;99.90
21722;DHT22;11023;48.274;7.794;2023-02-11T07:01:07;-1.30;99.90
21722;DHT22;11023;48.274;7.794;2023-02-11T07:03:34;-1.20;99.90
21722;DHT22;11023;48.274;7.794;2023-02-11T07:06:02;-1.20;99.90
21722;DHT22;11023;48.274;7.794;2023-02-11T07:08:28;-1.20;99.90
21722;DHT22;11023;48.274;7.794;2023-02-11T07:10:53;-1.10;99.90
21722;DHT22;11023;48.274;7.794;2023-02-11T07:13:19;-1.00;99.90
21722;DHT22;11023;48.274;7.794;2023-02-11T07:15:45;-1.00;99.90
21722;DHT22;11023;48.274;7.794;2023-02-11T07:18:11;-0.90;99.90
21722;DHT22;11023;48.274;7.794;2023-02-11T07:20:37;-0.90;99.90
21722;DHT22;11023;48.274;7.794;2023-02-11T07:23:03;-0.80;99.90
21722;DHT22;11023;48.274;7.794;2023-02-11T07:25:30;-0.80;99.90
21722;DHT22;11023;48.274;7.794;2023-02-11T07:27:55;-0.80;99.90
21722;DHT22;11023;48.274;7.794;2023-02-11T07:30:21;-0.70;99.90
21722;DHT22;11023;48.274;7.794;2023-02-11T07:32:47;-0.70;99.90
21722;DHT22;11023;48.274;7.794;2023-02-11T07:35:13;-0.70;99.90
21722;DHT22;11023;48.274;7.794;2023-02-11T07:37:39;-0.60;99.90
21722;DHT22;11023;48.274;7.794;2023-02-11T07:40:07;-0.60;99.90
21722;DHT22;11023;48.274;7.794;2023-02-11T07:42:34;-0.50;99.90
21722;DHT22;11023;48.274;7.794;2023-02-11T07:45:00;-0.50;99.90
21722;DHT22;11023;48.274;7.794;2023-02-11T07:47:26;-0.50;99.90
21722;DHT22;11023;48.274;7.794;2023-02-11T07:49:52;-0.50;99.90
21722;DHT22;11023;48.274;7.794;2023-02-11T07:52:17;-0.40;99.90
21722;DHT22;11023;48.274;7.794;2023-02-11T07:54:44;-0.40;99.90
21722;DHT22;11023;48.274;7.794;2023-02-11T07:57:10;-0.30;99.90
21722;DHT22;11023;48.274;7.794;2023-02-11T07:59:36;-0.30;99.90
21722;DHT22;11023;48.274;7.794;2023-02-11T08:02:03;-0.20;99.90
21722;DHT22;11023;48.274;7.794;2023-02-11T08:04:29;-0.10;99.90
21722;DHT22;11023;48.274;7.794;2023-02-11T08:06:54;-0.10;99.90
21722;DHT22;11023;48.274;7.794;2023-02-11T08:09:22;0.00;99.90
21722;DHT22;11023;48.274;7.794;2023-02-11T08:11:48;0.00;99.90
21722;DHT22;11023;48.274;7.794;2023-02-11T08:14:14;0.10;99.90
21722;DHT22;11023;48.274;7.794;2023-02-11T08:16:40;0.20;99.90
21722;DHT22;11023;48.274;7.794;2023-02-11T08:19:16;0.20;99.90
21722;DHT22;11023;48.274;7.794;2023-02-11T08:21:42;0.30;99.90
21722;DHT22;11023;48.274;7.794;2023-02-11T08:24:09;0.30;99.90
21722;DHT22;11023;48.274;7.794;2023-02-11T08:26:35;0.30;99.90
21722;DHT22;11023;48.274;7.794;2023-02-11T08:29:04;0.40;99.90
21722;DHT22;11023;48.274;7.794;2023-02-11T08:31:37;0.50;99.90
21722;DHT22;11023;48.274;7.794;2023-02-11T08:34:04;0.50;99.90
21722;DHT22;11023;48.274;7.794;2023-02-11T08:36:33;0.50;99.90
21722;DHT22;11023;48.274;7.794;2023-02-11T08:39:02;0.60;99.90
21722;DHT22;11023;48.274;7.794;2023-02-11T08:41:31;0.60;99.90
21722;DHT22;11023;48.274;7.794;2023-02-11T08:43:57;0.70;99.90
21722;DHT22;11023;48.274;7.794;2023-02-11T08:46:23;0.70;99.90
21722;DHT22;11023;48.274;7.794;2023-02-11T08:48:49;0.80;99.90
21722;DHT22;11023;48.274;7.794;2023-02-11T08:51:26;0.80;99.90
21722;DHT22;11023;48.274;7.794;2023-02-11T08:53:54;0.80;99.90
21722;DHT22;11023;48.274;7.794;2023-02-11T08:56:20;0.90;99.90
21722;DHT22;11023;48.274;7.794;2023-02-11T08:58:48;0.90;99.90
21722;DHT22;11023;48.274;7.794;2023-02-11T09:01:17;0.90;99.90
21722;DHT22;11023;48.274;7.794;2023-02-11T09:03:43;0.90;99.90
21722;DHT22;11023;48.274;7.794;2023-02-11T09:06:10;0.90;99.90
21722;DHT22;11023;48.274;7.794;2023-02-11T09:08:38;1.00;99.90
21722;DHT22;11023;48.274;7.794;2023-02-11T09:11:04;1.00;99.90
21722;DHT22;11023;48.274;7.794;2023-02-11T09:13:30;1.10;99.90
21722;DHT22;11023;48.274;7.794;2023-02-11T09:15:57;1.10;99.90
21722;DHT22;11023;48.274;7.794;2023-02-11T09:18:23;1.20;99.90
21722;DHT22;11023;48.274;7.794;2023-02-11T09:20:50;1.20;99.90
21722;DHT22;11023;48.274;7.794;2023-02-11T09:23:17;1.30;99.90
21722;DHT22;11023;48.274;7.794;2023-02-11T09:25:42;1.50;99.90
21722;DHT22;11023;48.274;7.794;2023-02-11T09:28:08;1.60;99.90
21722;DHT22;11023;48.274;7.794;2023-02-11T09:30:37;1.70;99.90
21722;DHT22;11023;48.274;7.794;2023-02-11T09:33:03;1.80;99.90
21722;DHT22;11023;48.274;7.794;2023-02-11T09:35:28;1.90;99.90
21722;DHT22;11023;48.274;7.794;2023-02-11T09:37:54;2.00;99.90
21722;DHT22;11023;48.274;7.794;2023-02-11T09:40:21;2.00;99.90
21722;DHT22;11023;48.274;7.794;2023-02-11T09:42:56;2.10;99.90
21722;DHT22;11023;48.274;7.794;2023-02-11T09:45:28;2.20;99.90
21722;DHT22;11023;48.274;7.794;2023-02-11T09:50:57;2.40;99.90
21722;DHT22;11023;48.274;7.794;2023-02-11T09:53:28;2.50;99.90
21722;DHT22;11023;48.274;7.794;2023-02-11T09:56:09;2.60;99.90
21722;DHT22;11023;48.274;7.794;2023-02-11T09:58:39;2.60;99.90
21722;DHT22;11023;48.274;7.794;2023-02-11T10:04:36;2.90;99.90
21722;DHT22;11023;48.274;7.794;2023-02-11T10:07:21;2.90;99.90
21722;DHT22;11023;48.274;7.794;2023-02-11T10:10:00;3.10;99.90
21722;DHT22;11023;48.274;7.794;2023-02-11T10:15:41;3.30;99.90
21722;DHT22;11023;48.274;7.794;2023-02-11T10:23:36;3.60;99.90
21722;DHT22;11023;48.274;7.794;2023-02-11T10:26:14;3.70;99.90
21722;DHT22;11023;48.274;7.794;2023-02-11T10:28:44;3.80;99.90
21722;DHT22;11023;48.274;7.794;2023-02-11T10:31:21;3.80;99.90
21722;DHT22;11023;48.274;7.794;2023-02-11T10:34:11;3.90;99.90
21722;DHT22;11023;48.274;7.794;2023-02-11T10:36:40;4.10;99.90
21722;DHT22;11023;48.274;7.794;2023-02-11T10:41:42;4.20;99.90
21722;DHT22;11023;48.274;7.794;2023-02-11T10:44:20;4.30;99.90
21722;DHT22;11023;48.274;7.794;2023-02-11T10:46:47;4.50;99.90
21722;DHT22;11023;48.274;7.794;2023-02-11T10:49:42;4.60;99.90
21722;DHT22;11023;48.274;7.794;2023-02-11T10:52:23;4.80;99.90
21722;DHT22;11023;48.274;7.794;2023-02-11T10:55:01;4.90;99.90
21722;DHT22;11023;48.274;7.794;2023-02-11T10:57:34;5.00;99.90
21722;DHT22;11023;48.274;7.794;2023-02-11T11:00:22;5.10;99.90
21722;DHT22;11023;48.274;7.794;2023-02-11T11:02:59;5.20;99.90
21722;DHT22;11023;48.274;7.794;2023-02-11T11:05:37;5.40;99.90
21722;DHT22;11023;48.274;7.794;2023-02-11T11:08:10;5.50;99.90
21722;DHT22;11023;48.274;7.794;2023-02-11T11:10:42;5.60;99.90
21722;DHT22;11023;48.274;7.794;2023-02-11T11:13:32;5.70;99.90
21722;DHT22;11023;48.274;7.794;2023-02-11T11:18:35;5.90;99.90
21722;DHT22;11023;48.274;7.794;2023-02-11T11:21:04;6.00;99.90
21722;DHT22;11023;48.274;7.794;2023-02-11T11:23:35;6.00;99.90
21722;DHT22;11023;48.274;7.794;2023-02-11T11:26:11;6.20;99.90
21722;DHT22;11023;48.274;7.794;2023-02-11T11:28:39;6.30;99.90
21722;DHT22;11023;48.274;7.794;2023-02-11T11:31:30;6.40;99.90
21722;DHT22;11023;48.274;7.794;2023-02-11T11:34:00;6.50;99.90
21722;DHT22;11023;48.274;7.794;2023-02-11T11:36:37;6.70;99.90
21722;DHT22;11023;48.274;7.794;2023-02-11T11:39:31;6.80;99.90
21722;DHT22;11023;48.274;7.794;2023-02-11T11:42:21;6.90;99.90
21722;DHT22;11023;48.274;7.794;2023-02-11T11:44:59;7.00;99.90
21722;DHT22;11023;48.274;7.794;2023-02-11T11:47:42;7.10;99.90
21722;DHT22;11023;48.274;7.794;2023-02-11T11:50:21;7.30;99.90
21722;DHT22;11023;48.274;7.794;2023-02-11T11:55:33;7.40;99.90
21722;DHT22;11023;48.274;7.794;2023-02-11T11:57:59;7.60;99.90
21722;DHT22;11023;48.274;7.794;2023-02-11T12:00:43;7.70;99.90
21722;DHT22;11023;48.274;7.794;2023-02-11T12:25:24;8.20;99.90
21722;DHT22;11023;48.274;7.794;2023-02-11T12:33:23;8.40;99.90
21722;DHT22;11023;48.274;7.794;2023-02-11T12:36:01;8.40;99.90
21722;DHT22;11023;48.274;7.794;2023-02-11T12:41:35;8.60;99.90
21722;DHT22;11023;48.274;7.794;2023-02-11T12:44:44;8.50;99.90
21722;DHT22;11023;48.274;7.794;2023-02-11T12:52:52;8.90;99.90
21722;DHT22;11023;48.274;7.794;2023-02-11T12:55:25;8.90;99.90
21722;DHT22;11023;48.274;7.794;2023-02-11T12:57:54;8.80;99.90
21722;DHT22;11023;48.274;7.794;2023-02-11T13:00:25;8.80;99.90
21722;DHT22;11023;48.274;7.794;2023-02-11T13:03:02;8.80;99.90
21722;DHT22;11023;48.274;7.794;2023-02-11T13:05:38;8.90;99.90
21722;DHT22;11023;48.274;7.794;2023-02-11T13:08:11;8.90;99.90
21722;DHT22;11023;48.274;7.794;2023-02-11T13:10:46;9.00;99.90
21722;DHT22;11023;48.274;7.794;2023-02-11T13:13:15;9.00;99.90
21722;DHT22;11023;48.274;7.794;2023-02-11T13:15:49;9.00;99.90
21722;DHT22;11023;48.274;7.794;2023-02-11T13:18:52;9.20;99.90
21722;DHT22;11023;48.274;7.794;2023-02-11T13:24:46;9.30;99.90
21722;DHT22;11023;48.274;7.794;2023-02-11T13:27:31;9.40;99.90
21722;DHT22;11023;48.274;7.794;2023-02-11T13:35:38;9.60;99.90
21722;DHT22;11023;48.274;7.794;2023-02-11T13:38:05;9.70;99.90
21722;DHT22;11023;48.274;7.794;2023-02-11T13:40:34;9.80;99.90
21722;DHT22;11023;48.274;7.794;2023-02-11T13:43:17;9.90;99.90
21722;DHT22;11023;48.274;7.794;2023-02-11T13:46:05;9.70;99.90
21722;DHT22;11023;48.274;7.794;2023-02-11T13:55:42;9.70;99.90
21722;DHT22;11023;48.274;7.794;2023-02-11T14:01:09;10.00;99.90
21722;DHT22;11023;48.274;7.794;2023-02-11T14:04:24;9.90;99.90
21722;DHT22;11023;48.274;7.794;2023-02-11T14:07:31;10.00;99.90
21722;DHT22;11023;48.274;7.794;2023-02-11T14:13:32;10.00;99.90
21722;DHT22;11023;48.274;7.794;2023-02-11T14:16:30;9.90;99.90
21722;DHT22;11023;48.274;7.794;2023-02-11T14:19:10;10.00;99.90
21722;DHT22;11023;48.274;7.794;2023-02-11T14:22:24;10.10;99.90
21722;DHT22;11023;48.274;7.794;2023-02-11T14:25:21;10.00;99.90
21722;DHT22;11023;48.274;7.794;2023-02-11T14:28:28;9.90;99.90
21722;DHT22;11023;48.274;7.794;2023-02-11T14:40:32;9.90;99.90
21722;DHT22;11023;48.274;7.794;2023-02-11T14:43:44;10.00;99.90
21722;DHT22;11023;48.274;7.794;2023-02-11T14:46:46;10.00;99.90
21722;DHT22;11023;48.274;7.794;2023-02-11T14:50:04;10.10;99.90
21722;DHT22;11023;48.274;7.794;2023-02-11T14:53:33;10.20;99.90
21722;DHT22;11023;48.274;7.794;2023-02-11T14:56:28;10.10;99.90
21722;DHT22;11023;48.274;7.794;2023-02-11T14:58:58;10.20;99.90
21722;DHT22;11023;48.274;7.794;2023-02-11T15:05:31;10.30;99.90
21722;DHT22;11023;48.274;7.794;2023-02-11T15:08:33;10.30;99.90
21722;DHT22;11023;48.274;7.794;2023-02-11T15:11:19;10.20;99.90
21722;DHT22;11023;48.274;7.794;2023-02-11T15:17:34;10.30;99.90
21722;DHT22;11023;48.274;7.794;2023-02-11T15:20:04;10.30;99.90
21722;DHT22;11023;48.274;7.794;2023-02-11T15:22:46;10.40;99.90
21722;DHT22;11023;48.274;7.794;2023-02-11T15:28:54;10.40;99.90
21722;DHT22;11023;48.274;7.794;2023-02-11T15:34:28;10.40;99.90
21722;DHT22;11023;48.274;7.794;2023-02-11T15:37:24;10.50;99.90
21722;DHT22;11023;48.274;7.794;2023-02-11T15:44:00;10.40;99.90
21722;DHT22;11023;48.274;7.794;2023-02-11T15:46:37;10.40;99.90
21722;DHT22;11023;48.274;7.794;2023-02-11T15:49:42;10.30;99.90
21722;DHT22;11023;48.274;7.794;2023-02-11T15:52:40;10.20;99.90
21722;DHT22;11023;48.274;7.794;2023-02-11T15:55:17;10.10;99.90
21722;DHT22;11023;48.274;7.794;2023-02-11T16:01:34;10.00;99.90
21722;DHT22;11023;48.274;7.794;2023-02-11T16:04:28;9.90;99.90
21722;DHT22;11023;48.274;7.794;2023-02-11T16:09:56;9.60;99.90
21722;DHT22;11023;48.274;7.794;2023-02-11T16:19:04;9.30;99.90
21722;DHT22;11023;48.274;7.794;2023-02-11T16:21:58;9.30;99.90
21722;DHT22;11023;48.274;7.794;2023-02-11T16:35:37;9.10;99.90
21722;DHT22;11023;48.274;7.794;2023-02-11T16:38:56;8.90;99.90
21722;DHT22;11023;48.274;7.794;2023-02-11T16:43:58;8.70;99.90
21722;DHT22;11023;48.274;7.794;2023-02-11T16:46:48;8.60;99.90
21722;DHT22;11023;48.274;7.794;2023-02-11T16:49:59;8.60;99.90
21722;DHT22;11023;48.274;7.794;2023-02-11T16:52:50;8.50;99.90
21722;DHT22;11023;48.274;7.794;2023-02-11T16:55:39;8.30;99.90
21722;DHT22;11023;48.274;7.794;2023-02-11T16:58:19;8.30;99.90
21722;DHT22;11023;48.274;7.794;2023-02-11T17:01:07;8.30;99.90
21722;DHT22;11023;48.274;7.794;2023-02-11T17:03:58;8.20;99.90
21722;DHT22;11023;48.274;7.794;2023-02-11T17:06:52;8.10;99.90
21722;DHT22;11023;48.274;7.794;2023-02-11T17:09:30;8.00;99.90
21722;DHT22;11023;48.274;7.794;2023-02-11T17:30:43;7.30;99.90
21722;DHT22;11023;48.274;7.794;2023-02-11T17:33:28;7.20;99.90
21722;DHT22;11023;48.274;7.794;2023-02-11T17:39:40;7.10;99.90
21722;DHT22;11023;48.274;7.794;2023-02-11T17:42:18;7.00;99.90
21722;DHT22;11023;48.274;7.794;2023-02-11T17:45:31;7.00;99.90
21722;DHT22;11023;48.274;7.794;2023-02-11T17:48:15;7.00;99.90
21722;DHT22;11023;48.274;7.794;2023-02-11T17:50:50;7.00;99.90
21722;DHT22;11023;48.274;7.794;2023-02-11T17:53:22;7.00;99.90
21722;DHT22;11023;48.274;7.794;2023-02-11T17:56:15;7.10;99.90
21722;DHT22;11023;48.274;7.794;2023-02-11T17:59:17;7.00;99.90
21722;DHT22;11023;48.274;7.794;2023-02-11T18:01:49;6.90;99.90
21722;DHT22;11023;48.274;7.794;2023-02-11T18:04:44;6.80;99.90
21722;DHT22;11023;48.274;7.794;2023-02-11T18:07:51;6.70;99.90
21722;DHT22;11023;48.274;7.794;2023-02-11T18:10:49;6.50;99.90
21722;DHT22;11023;48.274;7.794;2023-02-11T18:16:37;5.90;99.90
21722;DHT22;11023;48.274;7.794;2023-02-11T18:25:50;5.20;99.90
21722;DHT22;11023;48.274;7.794;2023-02-11T18:28:41;5.00;99.90
21722;DHT22;11023;48.274;7.794;2023-02-11T18:31:30;5.00;99.90
21722;DHT22;11023;48.274;7.794;2023-02-11T18:34:10;4.90;99.90
21722;DHT22;11023;48.274;7.794;2023-02-11T18:40:10;4.70;99.90
21722;DHT22;11023;48.274;7.794;2023-02-11T18:42:36;4.60;99.90
21722;DHT22;11023;48.274;7.794;2023-02-11T18:54:23;4.40;99.90
21722;DHT22;11023;48.274;7.794;2023-02-11T18:57:19;4.30;99.90
21722;DHT22;11023;48.274;7.794;2023-02-11T19:00:06;4.30;99.90
21722;DHT22;11023;48.274;7.794;2023-02-11T19:03:00;4.20;99.90
21722;DHT22;11023;48.274;7.794;2023-02-11T19:09:08;4.00;99.90
21722;DHT22;11023;48.274;7.794;2023-02-11T19:11:51;4.00;99.90
21722;DHT22;11023;48.274;7.794;2023-02-11T19:14:48;4.00;99.90
21722;DHT22;11023;48.274;7.794;2023-02-11T19:17:36;3.90;99.90
21722;DHT22;11023;48.274;7.794;2023-02-11T19:20:37;3.80;99.90
21722;DHT22;11023;48.274;7.794;2023-02-11T19:26:15;3.70;99.90
21722;DHT22;11023;48.274;7.794;2023-02-11T19:28:49;3.70;99.90
21722;DHT22;11023;48.274;7.794;2023-02-11T19:32:22;3.70;99.90
21722;DHT22;11023;48.274;7.794;2023-02-11T19:35:10;3.70;99.90
21722;DHT22;11023;48.274;7.794;2023-02-11T19:37:36;3.60;99.90
21722;DHT22;11023;48.274;7.794;2023-02-11T19:44:03;3.40;99.90
21722;DHT22;11023;48.274;7.794;2023-02-11T19:46:44;3.40;99.90
21722;DHT22;11023;48.274;7.794;2023-02-11T19:50:04;3.30;99.90
21722;DHT22;11023;48.274;7.794;2023-02-11T19:52:30;3.30;99.90
21722;DHT22;11023;48.274;7.794;2023-02-11T19:54:56;3.30;99.90
21722;DHT22;11023;48.274;7.794;2023-02-11T19:57:21;3.20;99.90
21722;DHT22;11023;48.274;7.794;2023-02-11T19:59:47;3.10;99.90
21722;DHT22;11023;48.274;7.794;2023-02-11T20:02:13;3.10;99.90